createdAt,value
2019-06-26T00:01:30.486Z,25.93
2019-06-26T00:04:00.425Z,25.88
2019-06-26T00:06:30.017Z,25.84
2019-06-26T00:09:00.229Z,25.80
2019-06-26T00:11:30.354Z,25.76
2019-06-26T00:13:59.931Z,25.71
2019-06-26T00:16:29.280Z,25.68
2019-06-26T00:18:58.278Z,25.63
2019-06-26T00:21:27.704Z,25.58
2019-06-26T00:23:58.782Z,25.53
2019-06-26T00:26:28.257Z,25.50
2019-06-26T00:28:57.979Z,25.45
2019-06-26T00:31:27.964Z,25.42
2019-06-26T00:33:57.005Z,25.36
2019-06-26T00:36:26.961Z,25.33
2019-06-26T00:38:56.440Z,25.27
2019-06-26T00:41:25.998Z,25.21
2019-06-26T00:43:55.680Z,25.17
2019-06-26T00:46:26.073Z,25.14
2019-06-26T00:48:55.989Z,25.12
2019-06-26T00:51:25.715Z,25.08
2019-06-26T00:53:55.485Z,25.02
2019-06-26T00:56:24.637Z,24.98
2019-06-26T00:58:55.153Z,24.93
2019-06-26T01:01:24.196Z,24.88
2019-06-26T01:03:53.452Z,24.81
2019-06-26T01:06:27.888Z,24.78
2019-06-26T01:08:58.053Z,24.72
2019-06-26T01:11:28.431Z,24.69
2019-06-26T01:13:59.164Z,24.66
2019-06-26T01:16:28.060Z,24.62
2019-06-26T01:18:58.066Z,24.58
2019-06-26T01:21:27.011Z,24.56
2019-06-26T01:23:57.067Z,24.52
2019-06-26T01:26:26.744Z,24.49
2019-06-26T01:28:56.288Z,24.44
2019-06-26T01:31:25.913Z,24.40
2019-06-26T01:33:55.916Z,24.36
2019-06-26T01:36:26.451Z,24.30
2019-06-26T01:38:57.189Z,24.24
2019-06-26T01:41:29.717Z,24.18
2019-06-26T01:44:13.544Z,24.14
2019-06-26T01:46:27.650Z,24.09
2019-06-26T01:48:56.621Z,24.03
2019-06-26T01:51:26.319Z,23.98
2019-06-26T01:53:56.253Z,23.90
2019-06-26T01:56:25.132Z,23.83
2019-06-26T01:58:54.768Z,23.75
2019-06-26T02:01:24.328Z,23.90
2019-06-26T02:03:54.833Z,23.74
2019-06-26T02:06:24.397Z,23.62
2019-06-26T02:08:54.394Z,23.51
2019-06-26T02:11:24.190Z,23.43
2019-06-26T02:13:53.284Z,23.39
2019-06-26T02:16:22.617Z,23.32
2019-06-26T02:18:54.430Z,23.25
2019-06-26T02:21:23.382Z,23.19
2019-06-26T02:23:52.513Z,23.13
2019-06-26T02:26:21.501Z,23.06
2019-06-26T02:28:52.270Z,23.02
2019-06-26T02:31:22.513Z,22.97
2019-06-26T02:33:52.829Z,22.92
2019-06-26T02:36:22.626Z,22.88
2019-06-26T02:38:51.547Z,22.83
2019-06-26T02:41:20.712Z,22.74
2019-06-26T02:43:50.448Z,22.71
2019-06-26T02:46:21.407Z,22.62
2019-06-26T02:48:51.744Z,22.55
2019-06-26T02:51:21.191Z,22.43
2019-06-26T02:53:50.229Z,22.38
2019-06-26T02:56:19.180Z,22.33
2019-06-26T02:58:48.722Z,22.29
2019-06-26T03:01:17.586Z,22.25
2019-06-26T03:03:47.124Z,22.15
2019-06-26T03:06:16.097Z,22.11
2019-06-26T03:08:46.192Z,22.05
2019-06-26T03:11:16.044Z,22.03
2019-06-26T03:13:46.335Z,21.99
2019-06-26T03:16:15.525Z,21.94
2019-06-26T03:18:44.531Z,21.94
2019-06-26T03:21:15.819Z,21.95
2019-06-26T03:23:44.978Z,21.93
2019-06-26T03:26:13.994Z,21.92
2019-06-26T03:28:42.984Z,21.91
2019-06-26T03:31:12.557Z,21.90
2019-06-26T03:33:43.297Z,21.86
2019-06-26T03:36:12.890Z,21.83
2019-06-26T03:38:42.403Z,21.79
2019-06-26T03:41:11.296Z,21.77
2019-06-26T03:43:40.239Z,21.77
2019-06-26T03:46:10.642Z,21.76
2019-06-26T03:48:40.164Z,21.75
2019-06-26T03:51:09.255Z,21.78
2019-06-26T03:53:38.148Z,21.77
2019-06-26T03:56:07.127Z,21.74
2019-06-26T03:58:37.172Z,21.74
2019-06-26T04:01:06.919Z,21.71
2019-06-26T04:03:35.846Z,21.70
2019-06-26T04:06:05.060Z,21.71
2019-06-26T04:08:34.106Z,21.70
2019-06-26T04:11:03.222Z,21.71
2019-06-26T04:13:32.306Z,21.69
2019-06-26T04:16:01.395Z,21.65
2019-06-26T04:18:30.233Z,21.70
2019-06-26T04:21:00.476Z,21.67
2019-06-26T04:23:30.810Z,21.67
2019-06-26T04:25:59.763Z,21.68
2019-06-26T04:28:30.423Z,21.71
2019-06-26T04:31:00.573Z,21.73
2019-06-26T04:33:29.549Z,21.77
2019-06-26T04:36:00.349Z,21.78
2019-06-26T04:38:29.506Z,21.81
2019-06-26T04:40:58.116Z,21.77
2019-06-26T04:43:27.151Z,21.81
2019-06-26T04:46:00.182Z,21.84
2019-06-26T04:48:30.679Z,21.82
2019-06-26T04:51:00.732Z,21.75
2019-06-26T04:53:30.390Z,21.75
2019-06-26T04:55:59.380Z,21.75
2019-06-26T04:58:28.630Z,21.77
2019-06-26T05:00:57.622Z,21.74
2019-06-26T05:03:27.247Z,21.77
2019-06-26T05:05:56.294Z,21.82
2019-06-26T05:08:25.456Z,21.84
2019-06-26T05:10:54.674Z,21.86
2019-06-26T05:13:24.354Z,21.86
2019-06-26T05:15:55.370Z,21.89
2019-06-26T05:18:24.489Z,21.84
2019-06-26T05:20:54.629Z,21.78
2019-06-26T05:23:23.679Z,21.77
2019-06-26T05:25:52.758Z,21.76
2019-06-26T05:28:23.243Z,21.80
2019-06-26T05:30:52.339Z,21.92
2019-06-26T05:33:24.385Z,21.98
2019-06-26T05:35:54.681Z,22.02
2019-06-26T05:38:26.080Z,22.06
2019-06-26T05:40:55.711Z,22.11
2019-06-26T05:43:26.009Z,22.16
2019-06-26T05:45:55.008Z,22.25
2019-06-26T05:48:24.518Z,22.28
2019-06-26T05:50:53.573Z,22.32
2019-06-26T05:53:23.875Z,22.35
2019-06-26T05:55:52.832Z,22.39
2019-06-26T05:58:23.000Z,22.39
2019-06-26T06:00:52.041Z,22.43
2019-06-26T06:03:22.195Z,22.51
2019-06-26T06:05:51.811Z,22.58
2019-06-26T06:08:21.448Z,22.68
2019-06-26T06:10:50.410Z,22.60
2019-06-26T06:13:20.348Z,22.57
2019-06-26T06:15:49.464Z,22.51
2019-06-26T06:18:19.149Z,22.56
2019-06-26T06:20:48.101Z,22.64
2019-06-26T06:23:17.863Z,22.78
2019-06-26T06:25:46.860Z,22.81
2019-06-26T06:28:16.242Z,22.84
2019-06-26T06:30:45.728Z,22.94
2019-06-26T06:33:15.796Z,23.02
2019-06-26T06:35:45.776Z,23.09
2019-06-26T06:38:15.908Z,23.06
2019-06-26T06:40:46.294Z,23.12
2019-06-26T06:43:21.224Z,23.12
2019-06-26T06:45:50.517Z,23.25
2019-06-26T06:48:21.408Z,23.37
2019-06-26T06:50:52.490Z,23.44
2019-06-26T06:53:22.315Z,23.50
2019-06-26T06:55:53.246Z,23.51
2019-06-26T06:58:22.372Z,23.48
2019-06-26T07:00:51.934Z,23.48
2019-06-26T07:03:21.115Z,23.54
2019-06-26T07:05:50.955Z,23.57
2019-06-26T07:08:20.431Z,23.44
2019-06-26T07:10:49.378Z,23.36
2019-06-26T07:13:18.330Z,23.33
2019-06-26T07:15:47.778Z,23.33
2019-06-26T07:18:17.880Z,23.39
2019-06-26T07:20:46.849Z,23.48
2019-06-26T07:23:15.732Z,23.56
2019-06-26T07:25:44.643Z,23.60
2019-06-26T07:28:14.562Z,23.58
2019-06-26T07:30:44.595Z,23.62
2019-06-26T07:33:13.669Z,23.64
2019-06-26T07:35:43.409Z,23.59
2019-06-26T07:38:12.464Z,23.66
2019-06-26T07:40:41.440Z,23.74
2019-06-26T07:43:10.504Z,23.84
2019-06-26T07:45:39.626Z,23.93
2019-06-26T07:48:09.172Z,24.15
2019-06-26T07:50:39.268Z,24.39
2019-06-26T07:53:08.159Z,24.57
2019-06-26T07:55:40.470Z,24.60
2019-06-26T07:58:07.514Z,24.81
2019-06-26T08:00:37.750Z,25.06
2019-06-26T08:03:07.798Z,25.25
2019-06-26T08:05:36.991Z,25.44
2019-06-26T08:08:06.055Z,25.63
2019-06-26T08:10:35.550Z,25.67
2019-06-26T08:13:05.353Z,25.83
2019-06-26T08:15:34.300Z,26.04
2019-06-26T08:18:03.825Z,26.31
2019-06-26T08:20:51.549Z,26.55
2019-06-26T08:23:03.623Z,26.75
2019-06-26T08:25:33.096Z,26.90
2019-06-26T08:28:03.086Z,26.75
2019-06-26T08:30:32.567Z,26.81
2019-06-26T08:33:03.123Z,27.02
2019-06-26T08:35:32.214Z,27.24
2019-06-26T08:38:11.103Z,27.36
2019-06-26T08:40:30.883Z,27.53
2019-06-26T08:43:00.446Z,27.97
2019-06-26T08:45:31.453Z,28.26
2019-06-26T08:48:16.646Z,28.44
2019-06-26T08:50:30.619Z,28.60
2019-06-26T08:53:00.796Z,28.96
2019-06-26T08:55:29.788Z,29.19
2019-06-26T08:57:59.572Z,29.23
2019-06-26T09:00:29.714Z,29.38
2019-06-26T09:02:58.715Z,29.43
2019-06-26T09:05:27.747Z,29.22
2019-06-26T09:07:57.375Z,29.60
2019-06-26T09:28:41.239Z,30.23
2019-06-26T09:31:10.793Z,30.40
2019-06-26T09:33:39.660Z,30.66
2019-06-26T09:36:09.768Z,30.78
2019-06-26T09:38:38.612Z,30.86
2019-06-26T09:41:07.745Z,31.02
2019-06-26T09:43:36.686Z,30.87
2019-06-26T09:46:05.594Z,30.87
2019-06-26T09:48:51.627Z,30.89
2019-06-26T09:51:04.627Z,30.75
2019-06-26T09:53:46.557Z,31.07
2019-06-26T09:56:02.308Z,31.10
2019-06-26T09:58:32.736Z,31.08
2019-06-26T10:01:01.607Z,31.10
2019-06-26T10:03:30.481Z,31.22
2019-06-26T10:05:59.341Z,31.14
2019-06-26T10:08:29.238Z,31.22
2019-06-26T10:10:58.140Z,31.33
2019-06-26T10:13:27.418Z,31.35
2019-06-26T10:15:59.477Z,31.18
2019-06-26T10:18:25.123Z,31.19
2019-06-26T10:20:54.600Z,31.27
2019-06-26T10:23:23.460Z,31.32
2019-06-26T10:25:52.326Z,31.53
2019-06-26T10:28:22.087Z,31.87
2019-06-26T10:30:50.720Z,32.25
2019-06-26T10:33:19.579Z,32.17
2019-06-26T10:35:48.424Z,31.74
2019-06-26T10:38:17.867Z,31.93
2019-06-26T10:40:46.792Z,32.18
2019-06-26T10:43:15.676Z,31.99
2019-06-26T10:45:44.519Z,32.13
2019-06-26T10:48:14.717Z,32.06
2019-06-26T10:50:51.929Z,32.23
2019-06-26T10:53:13.160Z,32.14
2019-06-26T10:55:42.001Z,31.83
2019-06-26T10:58:10.874Z,31.96
2019-06-26T11:00:40.723Z,31.89
2019-06-26T11:03:09.759Z,32.06
2019-06-26T11:05:39.576Z,32.09
2019-06-26T11:08:10.088Z,31.90
2019-06-26T11:10:38.954Z,31.96
2019-06-26T11:13:09.236Z,31.84
2019-06-26T11:15:38.739Z,31.73
2019-06-26T11:18:07.629Z,31.70
2019-06-26T11:20:36.450Z,31.63
2019-06-26T11:23:05.386Z,31.59
2019-06-26T11:25:34.210Z,31.75
2019-06-26T11:28:03.754Z,32.10
2019-06-26T11:30:33.305Z,32.37
2019-06-26T11:33:02.353Z,32.47
2019-06-26T11:35:31.022Z,32.46
2019-06-26T11:38:02.056Z,32.18
2019-06-26T11:40:30.983Z,32.08
2019-06-26T11:42:59.875Z,31.71
2019-06-26T11:45:29.871Z,31.66
2019-06-26T11:47:58.712Z,31.71
2019-06-26T11:50:27.593Z,31.83
2019-06-26T11:52:58.441Z,31.97
2019-06-26T11:55:27.300Z,31.95
2019-06-26T11:57:56.191Z,31.84
2019-06-26T12:00:25.046Z,31.69
2019-06-26T12:02:53.971Z,31.85
2019-06-26T12:05:22.833Z,32.00
2019-06-26T12:07:51.723Z,31.90
2019-06-26T12:10:20.943Z,31.78
2019-06-26T12:12:51.031Z,31.90
2019-06-26T12:15:19.910Z,31.74
2019-06-26T12:17:48.752Z,31.55
2019-06-26T12:20:19.843Z,31.61
2019-06-26T12:22:46.525Z,31.37
2019-06-26T12:25:15.378Z,31.48
2019-06-26T12:27:44.253Z,31.70
2019-06-26T12:30:14.165Z,31.84
2019-06-26T12:33:01.039Z,31.62
2019-06-26T12:35:12.141Z,31.58
2019-06-26T12:37:41.048Z,31.47
2019-06-26T12:40:10.057Z,31.46
2019-06-26T12:42:39.497Z,31.44
2019-06-26T12:45:08.500Z,31.26
2019-06-26T12:47:37.352Z,31.24
2019-06-26T12:50:06.328Z,31.43
2019-06-26T12:52:35.289Z,31.58
2019-06-26T12:55:04.233Z,31.43
2019-06-26T12:57:33.685Z,31.48
2019-06-26T13:00:03.501Z,31.47
2019-06-26T13:02:32.338Z,31.44
2019-06-26T13:05:01.226Z,31.30
2019-06-26T13:07:31.072Z,31.24
2019-06-26T13:10:00.952Z,31.18
2019-06-26T13:12:29.828Z,31.29
2019-06-26T13:14:59.276Z,31.35
2019-06-26T13:17:29.107Z,31.30
2019-06-26T13:19:59.081Z,31.14
2019-06-26T13:22:27.979Z,30.98
2019-06-26T13:24:56.865Z,30.96
2019-06-26T13:27:25.821Z,30.92
2019-06-26T13:29:55.278Z,30.78
2019-06-26T13:32:24.099Z,30.70
2019-06-26T13:34:52.976Z,30.53
2019-06-26T13:37:21.798Z,30.57
2019-06-26T13:39:50.722Z,30.61
2019-06-26T13:42:19.684Z,30.51
2019-06-26T13:44:48.535Z,30.13
2019-06-26T13:47:18.053Z,30.04
2019-06-26T13:49:46.963Z,29.93
2019-06-26T13:52:15.946Z,30.03
2019-06-26T13:54:44.924Z,30.13
2019-06-26T13:57:15.857Z,30.03
2019-06-26T13:59:43.684Z,29.77
2019-06-26T14:02:12.588Z,29.64
2019-06-26T14:04:42.791Z,29.64
2019-06-26T14:07:14.405Z,29.62
2019-06-26T14:09:43.347Z,29.45
2019-06-26T14:12:12.244Z,29.20
2019-06-26T14:14:56.921Z,29.20
2019-06-26T14:17:11.167Z,29.45
2019-06-26T14:19:40.018Z,29.42
2019-06-26T14:22:08.886Z,29.43
2019-06-26T14:24:38.341Z,29.37
2019-06-26T14:27:07.789Z,29.23
2019-06-26T14:29:36.754Z,29.22
2019-06-26T14:32:05.742Z,29.29
2019-06-26T14:34:43.151Z,29.16
2019-06-26T14:37:18.415Z,29.01
2019-06-26T14:39:47.666Z,28.93
2019-06-26T14:42:17.851Z,28.80
2019-06-26T14:44:46.671Z,28.79
2019-06-26T14:47:15.518Z,28.90
2019-06-26T14:49:44.438Z,29.06
2019-06-26T14:52:13.945Z,28.98
2019-06-26T14:54:44.457Z,29.15
2019-06-26T14:57:13.381Z,29.35
2019-06-26T14:59:42.251Z,29.55
2019-06-26T15:02:11.168Z,29.78
2019-06-26T15:04:46.180Z,29.88
2019-06-26T15:07:13.426Z,29.99
2019-06-26T15:09:44.873Z,30.03
2019-06-26T15:12:13.801Z,30.15
2019-06-26T15:14:42.633Z,30.22
2019-06-26T15:17:11.523Z,30.17
2019-06-26T15:19:40.345Z,29.92
2019-06-26T15:22:09.309Z,30.00
2019-06-26T15:24:38.258Z,29.99
2019-06-26T15:27:07.361Z,30.06
2019-06-26T15:29:36.321Z,30.09
2019-06-26T15:32:05.239Z,30.17
2019-06-26T15:34:34.304Z,30.31
2019-06-26T15:37:04.511Z,30.31
2019-06-26T15:39:33.409Z,30.21
2019-06-26T15:42:02.334Z,30.20
2019-06-26T15:44:31.394Z,30.10
2019-06-26T15:47:01.283Z,30.01
2019-06-26T15:49:30.140Z,29.85
2019-06-26T15:52:14.376Z,29.78
2019-06-26T15:54:33.630Z,29.88
2019-06-26T15:57:02.611Z,29.80
2019-06-26T15:59:31.504Z,29.64
2019-06-26T16:02:01.992Z,29.57
2019-06-26T16:04:30.919Z,29.52
2019-06-26T16:06:59.781Z,29.54
2019-06-26T16:09:28.707Z,29.48
2019-06-26T16:11:58.932Z,29.33
2019-06-26T16:14:26.448Z,29.12
2019-06-26T16:16:56.095Z,28.98
2019-06-26T16:19:25.064Z,28.85
2019-06-26T16:21:55.165Z,28.85
2019-06-26T16:24:24.061Z,28.88
2019-06-26T16:26:53.316Z,28.73
2019-06-26T16:29:22.208Z,28.70
2019-06-26T16:31:51.074Z,28.54
2019-06-26T16:34:19.932Z,28.46
2019-06-26T16:36:48.803Z,28.36
2019-06-26T16:39:17.675Z,28.19
2019-06-26T16:41:48.957Z,28.15
2019-06-26T16:44:15.490Z,28.04
2019-06-26T16:46:44.386Z,27.94
2019-06-26T16:49:13.760Z,27.93
2019-06-26T16:51:43.809Z,27.86
2019-06-26T16:54:12.723Z,27.73
2019-06-26T16:56:41.521Z,27.60
2019-06-26T17:02:33.018Z,27.38
2019-06-26T17:05:02.031Z,27.34
2019-06-26T17:07:31.266Z,27.28
2019-06-26T17:10:00.231Z,27.26
2019-06-26T17:12:29.283Z,27.23
2019-06-26T17:14:58.152Z,27.03
2019-06-26T17:17:27.007Z,26.93
2019-06-26T17:19:55.851Z,26.88
2019-06-26T17:22:24.672Z,26.77
2019-06-26T17:24:53.513Z,26.71
2019-06-26T17:27:22.703Z,26.70
2019-06-26T17:29:51.700Z,26.68
2019-06-26T17:32:21.259Z,26.53
2019-06-26T17:34:50.081Z,26.41
2019-06-26T17:37:19.024Z,26.29
2019-06-26T17:39:47.851Z,26.29
2019-06-26T17:42:16.895Z,26.34
2019-06-26T17:44:45.733Z,26.33
2019-06-26T17:47:14.628Z,26.18
2019-06-26T17:49:44.104Z,26.12
2019-06-26T17:52:12.941Z,26.14
2019-06-26T17:54:41.816Z,26.15
2019-06-26T17:57:10.671Z,26.04
2019-06-26T17:59:46.376Z,25.96
2019-06-26T18:02:15.223Z,25.88
2019-06-26T18:04:44.072Z,25.88
2019-06-26T18:07:12.944Z,25.87
2019-06-26T18:09:41.790Z,25.78
2019-06-26T18:12:10.648Z,25.64
2019-06-26T18:14:43.214Z,25.57
2019-06-26T18:17:21.560Z,25.44
2019-06-26T18:19:40.244Z,25.39
2019-06-26T18:22:09.075Z,25.33
2019-06-26T18:24:38.012Z,25.31
2019-06-26T18:27:06.872Z,25.26
2019-06-26T18:29:35.969Z,25.13
2019-06-26T18:32:04.763Z,25.04
2019-06-26T18:34:33.601Z,24.90
2019-06-26T18:37:02.433Z,24.79
2019-06-26T18:39:31.403Z,24.66
2019-06-26T18:42:01.947Z,24.51
2019-06-26T18:44:30.770Z,24.51
2019-06-26T18:46:59.613Z,24.44
2019-06-26T18:49:28.441Z,24.41
2019-06-26T18:51:57.481Z,24.37
2019-06-26T18:54:26.849Z,24.22
2019-06-26T18:56:55.723Z,24.13
2019-06-26T18:59:24.572Z,24.05
2019-06-26T19:01:54.341Z,24.02
2019-06-26T19:04:23.242Z,23.90
2019-06-26T19:06:52.089Z,23.80
2019-06-26T19:09:21.844Z,23.80
2019-06-26T19:11:50.672Z,23.70
2019-06-26T19:14:19.530Z,23.56
2019-06-26T19:16:48.409Z,23.53
2019-06-26T19:19:17.257Z,23.45
2019-06-26T19:21:46.761Z,23.33
2019-06-26T19:24:15.581Z,23.19
2019-06-26T19:26:47.472Z,23.09
2019-06-26T19:29:16.315Z,22.95
2019-06-26T19:31:45.216Z,22.94
2019-06-26T19:34:14.181Z,22.87
2019-06-26T19:36:50.055Z,22.73
2019-06-26T19:39:12.056Z,22.63
2019-06-26T19:41:41.320Z,22.56
2019-06-26T19:44:10.104Z,22.41
2019-06-26T19:46:41.929Z,22.33
2019-06-26T19:49:10.067Z,22.27
2019-06-26T19:51:38.922Z,22.18
2019-06-26T19:54:07.776Z,22.02
2019-06-26T19:56:37.206Z,21.94
2019-06-26T19:59:06.765Z,21.86
2019-06-26T20:01:35.695Z,21.81
2019-06-26T20:04:04.599Z,21.71
2019-06-26T20:06:33.402Z,21.67
2019-06-26T20:09:03.193Z,21.62
2019-06-26T20:11:33.323Z,21.53
2019-06-26T20:14:02.202Z,21.42
2019-06-26T20:16:31.044Z,21.30
2019-06-26T20:18:59.879Z,21.22
2019-06-26T20:21:28.750Z,21.14
2019-06-26T20:23:58.277Z,21.04
2019-06-26T20:26:28.170Z,20.89
2019-06-26T20:28:57.001Z,20.88
2019-06-26T20:31:25.851Z,20.77
2019-06-26T20:33:54.673Z,20.77
2019-06-26T20:36:23.550Z,20.72
2019-06-26T20:38:52.420Z,20.58
2019-06-26T20:41:21.270Z,20.46
2019-06-26T20:43:50.135Z,20.39
2019-06-26T20:46:19.680Z,20.25
2019-06-26T20:48:48.532Z,20.19
2019-06-26T20:51:20.799Z,20.12
2019-06-26T20:53:47.647Z,20.07
2019-06-26T20:56:16.548Z,19.96
2019-06-26T20:58:46.057Z,19.87
2019-06-26T21:01:15.127Z,19.80
2019-06-26T21:03:44.005Z,19.73
2019-06-26T21:06:13.083Z,19.68
2019-06-26T21:08:41.945Z,19.59
2019-06-26T21:11:10.820Z,19.49
2019-06-26T21:13:40.186Z,19.43
2019-06-26T21:16:10.633Z,19.39
2019-06-26T21:18:39.499Z,19.43
2019-06-26T21:21:08.363Z,19.42
2019-06-26T21:23:37.273Z,19.28
2019-06-26T21:26:06.126Z,19.14
2019-06-26T21:28:34.998Z,19.09
2019-06-26T21:31:03.846Z,19.04
2019-06-26T21:33:33.699Z,19.00
2019-06-26T21:36:02.539Z,18.94
2019-06-26T21:38:31.390Z,18.89
2019-06-26T21:41:00.476Z,18.82
2019-06-26T21:43:29.407Z,18.78
2019-06-26T21:45:58.363Z,18.71
2019-06-26T21:48:28.342Z,18.70
2019-06-26T21:50:57.229Z,18.67
2019-06-26T21:53:26.072Z,18.61
2019-06-26T21:56:00.461Z,18.59
2019-06-26T21:58:35.021Z,18.56
2019-06-26T22:01:09.462Z,18.45
2019-06-26T22:03:45.066Z,18.35
2019-06-26T22:06:13.984Z,18.29
2019-06-26T22:08:44.411Z,18.25
2019-06-26T22:11:13.268Z,18.22
2019-06-26T22:13:42.129Z,18.16
2019-06-26T22:16:10.990Z,18.12
2019-06-26T22:18:39.928Z,18.07
2019-06-26T22:21:09.291Z,18.02
2019-06-26T22:23:38.245Z,17.97
2019-06-26T22:26:07.106Z,17.95
2019-06-26T22:28:35.989Z,17.90
2019-06-26T22:31:04.894Z,17.81
2019-06-26T22:33:33.762Z,17.74
2019-06-26T22:36:02.670Z,17.70
2019-06-26T22:38:31.548Z,17.63
2019-06-26T22:41:02.126Z,17.62
2019-06-26T22:43:31.650Z,17.59
2019-06-26T22:46:00.494Z,17.53
2019-06-26T22:48:29.383Z,17.50
2019-06-26T22:50:58.232Z,17.45
2019-06-26T22:53:27.058Z,17.42
2019-06-26T22:56:07.206Z,17.40
2019-06-26T22:58:25.262Z,17.36
2019-06-26T23:00:54.135Z,17.33
2019-06-26T23:03:23.024Z,17.30
2019-06-26T23:05:51.912Z,17.28
2019-06-26T23:08:20.807Z,17.29
2019-06-26T23:10:49.662Z,17.31
2019-06-26T23:13:18.556Z,17.32
2019-06-26T23:15:47.414Z,17.27
2019-06-26T23:18:16.248Z,17.25
2019-06-26T23:20:45.123Z,17.24
2019-06-26T23:23:13.942Z,17.23
2019-06-26T23:25:42.784Z,17.24
2019-06-26T23:28:13.343Z,17.23
2019-06-26T23:30:43.461Z,17.21
2019-06-26T23:33:12.815Z,17.19
2019-06-26T23:35:42.278Z,17.20
2019-06-26T23:38:11.660Z,17.19
2019-06-26T23:40:40.494Z,17.21
2019-06-26T23:43:09.323Z,17.22
2019-06-26T23:45:39.164Z,17.19
2019-06-26T23:48:11.382Z,17.18
2019-06-26T23:50:41.337Z,17.19
2019-06-26T23:53:10.214Z,17.17
2019-06-26T23:55:39.041Z,17.19
2019-06-26T23:58:09.270Z,17.18
